Spabunker 51 — ECNA — position and weather

sailwx.info

Track history (hours):
 
Tides and Currents Weather Stations Pressure Air Temp Water Temp Dewpoint Dewpoint Depression Visibility Wind Speed Wind Dir Waves Ship Positions

Spabunker 51

Last reported at 2017-May-25 18:00 UTC. Time now 2017-May-25 18:00 UTC.
Position N 36°08' W 005°25'.

Length 84 m; draft 5.8 m.

Type: Tanker. MMSI: 224322240.

Date/timePositionNaut miles runAvg speedWind from/ knotsBaromVisibWave heightAir tempDewpointWater temp
2017-May-25 18:00N 36°08' W 005°25'1 0.1
2017-May-25 06:45N 36°08' W 005°26'0 0.0
2017-May-25 06:26N 36°08' W 005°26'0 0.0
2017-May-25 05:59N 36°08' W 005°26'1 2.5
2017-May-25 05:30N 36°09' W 005°25'2 0.1
2017-May-24 10:06N 36°08' W 005°25'0 0.0
2017-May-24 10:00N 36°08' W 005°25'0 0.0
2017-May-24 09:28N 36°08' W 005°25'0 0.0
2017-May-24 09:00N 36°08' W 005°25'0 0.0
2017-May-24 08:28N 36°08' W 005°25'0 0.0
2017-May-24 08:00N 36°08' W 005°25'0 0.0
2017-May-24 07:19N 36°08' W 005°25'0 0.0
2017-May-24 06:11N 36°08' W 005°25'0 0.1
2017-May-24 05:53N 36°08' W 005°25'0 0.1
2017-May-24 05:30N 36°08' W 005°25'0 0.2
2017-May-24 05:00N 36°08' W 005°25'1 0.0
2017-May-23 06:33N 36°08' W 005°26'0 0.0
2017-May-23 06:21N 36°08' W 005°26'0 0.0
2017-May-23 02:57N 36°08' W 005°26'1 1.7
2017-May-23 02:30N 36°09' W 005°26'2 3.0
2017-May-23 01:57N 36°10' W 005°24'0 0.0
2017-May-23 01:30N 36°10' W 005°24'0 0.0
2017-May-23 01:00N 36°10' W 005°24'0 0.2
2017-May-23 00:20N 36°10' W 005°24'0 0.1
2017-May-22 23:48N 36°10' W 005°24'0 0.0
2017-May-22 22:43N 36°10' W 005°24'0 0.0
2017-May-22 22:29N 36°10' W 005°24'0 0.0
2017-May-22 21:19N 36°10' W 005°24'0 0.1
2017-May-22 21:00N 36°10' W 005°24'0 0.0
2017-May-22 19:45N 36°10' W 005°24'0 0.2
2017-May-22 19:29N 36°10' W 005°24'0 0.0
2017-May-22 16:19N 36°10' W 005°24'2 5.4
2017-May-22 15:56N 36°09' W 005°26'0 0.1
2017-May-22 13:03N 36°08' W 005°26'0 2.8
2017-May-22 12:53N 36°09' W 005°26'2 5.4
2017-May-22 12:26N 36°07' W 005°25'2 4.1
2017-May-22 12:00N 36°05' W 005°24'3 5.5
2017-May-22 11:28N 36°08' W 005°25'1 0.2
2017-May-22 06:45N 36°08' W 005°26'0 0.5
2017-May-22 06:01N 36°08' W 005°26'0 0.3
2017-May-22 05:58N 36°08' W 005°26'0 0.0
2017-May-22 05:30N 36°08' W 005°26'0 0.0
2017-May-22 05:00N 36°08' W 005°26'0 0.0
2017-May-22 04:30N 36°08' W 005°26'0 0.0
2017-May-22 03:53N 36°08' W 005°26'0 0.0
2017-May-22 03:30N 36°08' W 005°26'0 0.0
2017-May-22 03:00N 36°08' W 005°26'0 0.0
2017-May-22 02:29N 36°08' W 005°26'0 0.0
2017-May-22 02:00N 36°08' W 005°26'0 0.0
2017-May-22 01:30N 36°08' W 005°26'0 0.0
2017-May-22 01:00N 36°08' W 005°26'0 0.1
2017-May-21 22:04N 36°08' W 005°26'0 0.0
2017-May-21 21:41N 36°08' W 005°26'0 0.0
2017-May-21 21:28N 36°08' W 005°26'0 0.0
2017-May-21 21:00N 36°08' W 005°26'0 0.0
2017-May-21 20:14N 36°08' W 005°26'0 0.0
2017-May-21 19:47N 36°08' W 005°26'0 0.0
2017-May-21 19:27N 36°08' W 005°26'0 0.0
2017-May-21 13:19N 36°08' W 005°26'2 5.3
2017-May-21 12:57N 36°10' W 005°24'1 0.2
2017-May-21 08:31N 36°10' W 005°24'2 4.3
2017-May-21 08:01N 36°09' W 005°26'0 1.9
2017-May-21 07:55N 36°09' W 005°26'0 0.0
2017-May-21 06:50N 36°09' W 005°26'0 0.0
2017-May-21 05:42N 36°09' W 005°26'0 0.0
2017-May-21 05:18N 36°09' W 005°26'0 0.0
2017-May-21 04:51N 36°09' W 005°26'0 0.0
2017-May-21 04:30N 36°09' W 005°26'0 0.0
2017-May-21 03:54N 36°09' W 005°26'0 0.0
2017-May-21 03:30N 36°09' W 005°26'0 0.0
2017-May-21 03:00N 36°09' W 005°26'0 0.0
2017-May-21 02:30N 36°09' W 005°26'0 0.0
2017-May-21 01:59N 36°09' W 005°26'0 0.0
2017-May-21 01:30N 36°09' W 005°26'0 0.0
2017-May-21 01:00N 36°09' W 005°26'0 0.0
2017-May-21 00:30N 36°09' W 005°26'0 0.0
2017-May-21 00:00N 36°09' W 005°26'0 0.0
2017-May-20 23:30N 36°09' W 005°26'0 0.0
2017-May-20 23:00N 36°09' W 005°26'0 0.0
2017-May-20 22:30N 36°09' W 005°26'0 0.0
2017-May-20 22:00N 36°09' W 005°26'0 0.0
2017-May-20 21:30N 36°09' W 005°26'0 0.0
2017-May-20 20:59N 36°09' W 005°26'0 0.0
2017-May-20 20:30N 36°09' W 005°26'0 0.0
2017-May-20 19:59N 36°09' W 005°26'0 0.0
2017-May-20 18:55N 36°09' W 005°26'0 0.0
2017-May-20 18:30N 36°09' W 005°26'0 0.0
2017-May-20 18:00N 36°09' W 005°26'1 1.7
2017-May-20 17:29N 36°08' W 005°25'0 0.1
2017-May-20 17:00N 36°08' W 005°25'0 0.0
2017-May-20 16:30N 36°08' W 005°25'0 0.0
2017-May-20 16:00N 36°08' W 005°25'0 0.0
2017-May-20 15:30N 36°08' W 005°25'0 0.0
2017-May-20 14:57N 36°08' W 005°25'0 0.0
2017-May-20 14:30N 36°08' W 005°25'0 0.0
2017-May-20 13:30N 36°08' W 005°25'0 0.0
2017-May-20 12:59N 36°08' W 005°25'0 0.0
2017-May-20 12:30N 36°08' W 005°25'0 0.0
2017-May-20 12:00N 36°08' W 005°25'1 0.2
2017-May-20 06:03N 36°09' W 005°26'0 0.0
2017-May-20 06:00N 36°09' W 005°26'0 0.0
2017-May-20 05:30N 36°09' W 005°26'0 0.0
2017-May-20 05:00N 36°09' W 005°26'0 0.0
2017-May-20 04:30N 36°09' W 005°26'0 0.0
2017-May-20 04:00N 36°09' W 005°26'0 0.0
2017-May-20 03:30N 36°09' W 005°26'0 0.0
2017-May-20 03:00N 36°09' W 005°26'0 0.0
2017-May-20 02:30N 36°09' W 005°26'0 0.0
2017-May-20 02:00N 36°09' W 005°26'0 0.0
2017-May-20 01:30N 36°09' W 005°26'0 0.0
2017-May-20 00:58N 36°09' W 005°26'0 0.0
2017-May-20 00:29N 36°09' W 005°26'0 0.0
2017-May-19 23:44N 36°09' W 005°26'0 0.0
2017-May-19 23:23N 36°09' W 005°26'0 0.0
2017-May-19 19:37N 36°09' W 005°26'0 0.0
2017-May-19 19:30N 36°09' W 005°26'0 0.0
2017-May-19 18:59N 36°09' W 005°26'2 2.7
2017-May-19 18:22N 36°08' W 005°24'0 0.1
2017-May-19 14:08N 36°08' W 005°25'3 0.9
2017-May-19 10:31N 36°11' W 005°24'0 0.0
2017-May-19 10:08N 36°11' W 005°24'0 0.0
2017-May-19 09:50N 36°11' W 005°24'0 0.0
2017-May-19 09:29N 36°11' W 005°24'0 0.0
2017-May-19 09:00N 36°11' W 005°24'0 0.0
2017-May-19 08:28N 36°11' W 005°24'0 0.0
2017-May-19 07:59N 36°11' W 005°24'0 0.0
2017-May-19 07:29N 36°11' W 005°24'0 0.0
2017-May-19 06:59N 36°11' W 005°24'0 0.0
2017-May-19 06:28N 36°11' W 005°24'0 0.0
2017-May-19 05:54N 36°11' W 005°24'0 0.0
2017-May-19 05:30N 36°11' W 005°24'0 0.0
2017-May-19 05:00N 36°11' W 005°24'0 0.0
2017-May-19 04:28N 36°11' W 005°24'0 0.0
2017-May-19 04:00N 36°11' W 005°24'0 0.0
2017-May-19 03:29N 36°11' W 005°24'0 0.0
2017-May-19 03:00N 36°11' W 005°24'0 0.0
2017-May-19 02:28N 36°11' W 005°24'0 0.0
2017-May-19 01:59N 36°11' W 005°24'0 0.0
2017-May-19 01:30N 36°11' W 005°24'0 0.0
2017-May-19 01:00N 36°11' W 005°24'0 0.0
2017-May-19 00:30N 36°11' W 005°24'0 0.0
2017-May-19 00:00N 36°11' W 005°24'0 0.1
2017-May-18 23:29N 36°11' W 005°24'0 0.7
2017-May-18 23:00N 36°10' W 005°23'0 0.2
2017-May-18 22:30N 36°10' W 005°23'0 0.0
2017-May-18 21:58N 36°10' W 005°23'0 0.0
2017-May-18 21:25N 36°10' W 005°23'0 0.0
2017-May-18 21:00N 36°10' W 005°23'0 0.0
2017-May-18 20:30N 36°10' W 005°23'0 0.0
2017-May-18 20:00N 36°10' W 005°23'0 0.0
2017-May-18 19:27N 36°10' W 005°23'0 0.0
2017-May-18 17:22N 36°10' W 005°23'3 2.4
2017-May-18 16:20N 36°08' W 005°24'0 0.0
2017-May-18 15:32N 36°08' W 005°24'0 0.1
2017-May-18 15:29N 36°08' W 005°24'0 0.0
2017-May-18 14:57N 36°08' W 005°24'0 0.1
2017-May-18 14:30N 36°08' W 005°24'0 0.1
2017-May-18 13:20N 36°08' W 005°24'0 0.1
2017-May-18 13:00N 36°08' W 005°24'0 0.0
2017-May-18 12:30N 36°08' W 005°24'0 0.1
2017-May-18 12:00N 36°08' W 005°24'0 0.1
2017-May-18 11:28N 36°08' W 005°25'0 0.0
2017-May-18 10:58N 36°08' W 005°24'0 0.0
2017-May-18 10:29N 36°08' W 005°25'1 0.2
2017-May-18 06:04N 36°08' W 005°26'0 0.3
2017-May-18 06:00N 36°08' W 005°26'3 4.2
2017-May-18 05:14N 36°05' W 005°25'0 0.6
2017-May-18 05:00N 36°05' W 005°25'0 0.0
2017-May-18 04:30N 36°05' W 005°25'0 0.1
2017-May-18 04:00N 36°05' W 005°25'0 0.1
2017-May-18 03:30N 36°05' W 005°25'0 0.1
2017-May-18 03:00N 36°05' W 005°25'0 0.1
2017-May-18 02:21N 36°05' W 005°25'0 0.1
2017-May-18 02:00N 36°05' W 005°25'0 0.1
2017-May-18 01:30N 36°05' W 005°25'0 0.1
2017-May-18 00:44N 36°05' W 005°25'1 5.3
2017-May-18 00:30N 36°06' W 005°25'3 6.4
2017-May-18 00:00N 36°10' W 005°24'2 0.1
2017-May-17 05:24N 36°08' W 005°26'0 0.0
2017-May-17 03:46N 36°08' W 005°26'0 0.0
2017-May-17 02:43N 36°08' W 005°26'0 0.0
2017-May-17 02:29N 36°08' W 005°26'  
Track history (hours):
 
Tides and Currents Weather Stations Pressure Air Temp Water Temp Dewpoint Dewpoint Depression Visibility Wind Speed Wind Dir Waves Ship Positions

Spabunker 51

Last reported at 2017-May-25 18:00 UTC. Time now 2017-May-25 18:00 UTC.
Position N 36°08' W 005°25'.

Length 84 m; draft 5.8 m.

Type: Tanker. MMSI: 224322240.

Date/timePositionNaut miles runAvg speedWind from/ knotsBaromVisibWave heightAir tempDewpointWater temp
2017-May-25 18:00N 36°08' W 005°25'1 0.1
2017-May-25 06:45N 36°08' W 005°26'0 0.0
2017-May-25 06:26N 36°08' W 005°26'0 0.0
2017-May-25 05:59N 36°08' W 005°26'1 2.5
2017-May-25 05:30N 36°09' W 005°25'2 0.1
2017-May-24 10:06N 36°08' W 005°25'0 0.0
2017-May-24 10:00N 36°08' W 005°25'0 0.0
2017-May-24 09:28N 36°08' W 005°25'0 0.0
2017-May-24 09:00N 36°08' W 005°25'0 0.0
2017-May-24 08:28N 36°08' W 005°25'0 0.0
2017-May-24 08:00N 36°08' W 005°25'0 0.0
2017-May-24 07:19N 36°08' W 005°25'0 0.0
2017-May-24 06:11N 36°08' W 005°25'0 0.1
2017-May-24 05:53N 36°08' W 005°25'0 0.1
2017-May-24 05:30N 36°08' W 005°25'0 0.2
2017-May-24 05:00N 36°08' W 005°25'1 0.0
2017-May-23 06:33N 36°08' W 005°26'0 0.0
2017-May-23 06:21N 36°08' W 005°26'0 0.0
2017-May-23 02:57N 36°08' W 005°26'1 1.7
2017-May-23 02:30N 36°09' W 005°26'2 3.0
2017-May-23 01:57N 36°10' W 005°24'0 0.0
2017-May-23 01:30N 36°10' W 005°24'0 0.0
2017-May-23 01:00N 36°10' W 005°24'0 0.2
2017-May-23 00:20N 36°10' W 005°24'0 0.1
2017-May-22 23:48N 36°10' W 005°24'0 0.0
2017-May-22 22:43N 36°10' W 005°24'0 0.0
2017-May-22 22:29N 36°10' W 005°24'0 0.0
2017-May-22 21:19N 36°10' W 005°24'0 0.1
2017-May-22 21:00N 36°10' W 005°24'0 0.0
2017-May-22 19:45N 36°10' W 005°24'0 0.2
2017-May-22 19:29N 36°10' W 005°24'0 0.0
2017-May-22 16:19N 36°10' W 005°24'2 5.4
2017-May-22 15:56N 36°09' W 005°26'0 0.1
2017-May-22 13:03N 36°08' W 005°26'0 2.8
2017-May-22 12:53N 36°09' W 005°26'2 5.4
2017-May-22 12:26N 36°07' W 005°25'2 4.1
2017-May-22 12:00N 36°05' W 005°24'3 5.5
2017-May-22 11:28N 36°08' W 005°25'1 0.2
2017-May-22 06:45N 36°08' W 005°26'0 0.5
2017-May-22 06:01N 36°08' W 005°26'0 0.3
2017-May-22 05:58N 36°08' W 005°26'0 0.0
2017-May-22 05:30N 36°08' W 005°26'0 0.0
2017-May-22 05:00N 36°08' W 005°26'0 0.0
2017-May-22 04:30N 36°08' W 005°26'0 0.0
2017-May-22 03:53N 36°08' W 005°26'0 0.0
2017-May-22 03:30N 36°08' W 005°26'0 0.0
2017-May-22 03:00N 36°08' W 005°26'0 0.0
2017-May-22 02:29N 36°08' W 005°26'0 0.0
2017-May-22 02:00N 36°08' W 005°26'0 0.0
2017-May-22 01:30N 36°08' W 005°26'0 0.0
2017-May-22 01:00N 36°08' W 005°26'0 0.1
2017-May-21 22:04N 36°08' W 005°26'0 0.0
2017-May-21 21:41N 36°08' W 005°26'0 0.0
2017-May-21 21:28N 36°08' W 005°26'0 0.0
2017-May-21 21:00N 36°08' W 005°26'0 0.0
2017-May-21 20:14N 36°08' W 005°26'0 0.0
2017-May-21 19:47N 36°08' W 005°26'0 0.0
2017-May-21 19:27N 36°08' W 005°26'0 0.0
2017-May-21 13:19N 36°08' W 005°26'2 5.3
2017-May-21 12:57N 36°10' W 005°24'1 0.2
2017-May-21 08:31N 36°10' W 005°24'2 4.3
2017-May-21 08:01N 36°09' W 005°26'0 1.9
2017-May-21 07:55N 36°09' W 005°26'0 0.0
2017-May-21 06:50N 36°09' W 005°26'0 0.0
2017-May-21 05:42N 36°09' W 005°26'0 0.0
2017-May-21 05:18N 36°09' W 005°26'0 0.0
2017-May-21 04:51N 36°09' W 005°26'0 0.0
2017-May-21 04:30N 36°09' W 005°26'0 0.0
2017-May-21 03:54N 36°09' W 005°26'0 0.0
2017-May-21 03:30N 36°09' W 005°26'0 0.0
2017-May-21 03:00N 36°09' W 005°26'0 0.0
2017-May-21 02:30N 36°09' W 005°26'0 0.0
2017-May-21 01:59N 36°09' W 005°26'0 0.0
2017-May-21 01:30N 36°09' W 005°26'0 0.0
2017-May-21 01:00N 36°09' W 005°26'0 0.0
2017-May-21 00:30N 36°09' W 005°26'0 0.0
2017-May-21 00:00N 36°09' W 005°26'0 0.0
2017-May-20 23:30N 36°09' W 005°26'0 0.0
2017-May-20 23:00N 36°09' W 005°26'0 0.0
2017-May-20 22:30N 36°09' W 005°26'0 0.0
2017-May-20 22:00N 36°09' W 005°26'0 0.0
2017-May-20 21:30N 36°09' W 005°26'0 0.0
2017-May-20 20:59N 36°09' W 005°26'0 0.0
2017-May-20 20:30N 36°09' W 005°26'0 0.0
2017-May-20 19:59N 36°09' W 005°26'0 0.0
2017-May-20 18:55N 36°09' W 005°26'0 0.0
2017-May-20 18:30N 36°09' W 005°26'0 0.0
2017-May-20 18:00N 36°09' W 005°26'1 1.7
2017-May-20 17:29N 36°08' W 005°25'0 0.1
2017-May-20 17:00N 36°08' W 005°25'0 0.0
2017-May-20 16:30N 36°08' W 005°25'0 0.0
2017-May-20 16:00N 36°08' W 005°25'0 0.0
2017-May-20 15:30N 36°08' W 005°25'0 0.0
2017-May-20 14:57N 36°08' W 005°25'0 0.0
2017-May-20 14:30N 36°08' W 005°25'0 0.0
2017-May-20 13:30N 36°08' W 005°25'0 0.0
2017-May-20 12:59N 36°08' W 005°25'0 0.0
2017-May-20 12:30N 36°08' W 005°25'0 0.0
2017-May-20 12:00N 36°08' W 005°25'1 0.2
2017-May-20 06:03N 36°09' W 005°26'0 0.0
2017-May-20 06:00N 36°09' W 005°26'0 0.0
2017-May-20 05:30N 36°09' W 005°26'0 0.0
2017-May-20 05:00N 36°09' W 005°26'0 0.0
2017-May-20 04:30N 36°09' W 005°26'0 0.0
2017-May-20 04:00N 36°09' W 005°26'0 0.0
2017-May-20 03:30N 36°09' W 005°26'0 0.0
2017-May-20 03:00N 36°09' W 005°26'0 0.0
2017-May-20 02:30N 36°09' W 005°26'0 0.0
2017-May-20 02:00N 36°09' W 005°26'0 0.0
2017-May-20 01:30N 36°09' W 005°26'0 0.0
2017-May-20 00:58N 36°09' W 005°26'0 0.0
2017-May-20 00:29N 36°09' W 005°26'0 0.0
2017-May-19 23:44N 36°09' W 005°26'0 0.0
2017-May-19 23:23N 36°09' W 005°26'0 0.0
2017-May-19 19:37N 36°09' W 005°26'0 0.0
2017-May-19 19:30N 36°09' W 005°26'0 0.0
2017-May-19 18:59N 36°09' W 005°26'2 2.7
2017-May-19 18:22N 36°08' W 005°24'0 0.1
2017-May-19 14:08N 36°08' W 005°25'3 0.9
2017-May-19 10:31N 36°11' W 005°24'0 0.0
2017-May-19 10:08N 36°11' W 005°24'0 0.0
2017-May-19 09:50N 36°11' W 005°24'0 0.0
2017-May-19 09:29N 36°11' W 005°24'0 0.0
2017-May-19 09:00N 36°11' W 005°24'0 0.0
2017-May-19 08:28N 36°11' W 005°24'0 0.0
2017-May-19 07:59N 36°11' W 005°24'0 0.0
2017-May-19 07:29N 36°11' W 005°24'0 0.0
2017-May-19 06:59N 36°11' W 005°24'0 0.0
2017-May-19 06:28N 36°11' W 005°24'0 0.0
2017-May-19 05:54N 36°11' W 005°24'0 0.0
2017-May-19 05:30N 36°11' W 005°24'0 0.0
2017-May-19 05:00N 36°11' W 005°24'0 0.0
2017-May-19 04:28N 36°11' W 005°24'0 0.0
2017-May-19 04:00N 36°11' W 005°24'0 0.0
2017-May-19 03:29N 36°11' W 005°24'0 0.0
2017-May-19 03:00N 36°11' W 005°24'0 0.0
2017-May-19 02:28N 36°11' W 005°24'0 0.0
2017-May-19 01:59N 36°11' W 005°24'0 0.0
2017-May-19 01:30N 36°11' W 005°24'0 0.0
2017-May-19 01:00N 36°11' W 005°24'0 0.0
2017-May-19 00:30N 36°11' W 005°24'0 0.0
2017-May-19 00:00N 36°11' W 005°24'0 0.1
2017-May-18 23:29N 36°11' W 005°24'0 0.7
2017-May-18 23:00N 36°10' W 005°23'0 0.2
2017-May-18 22:30N 36°10' W 005°23'0 0.0
2017-May-18 21:58N 36°10' W 005°23'0 0.0
2017-May-18 21:25N 36°10' W 005°23'0 0.0
2017-May-18 21:00N 36°10' W 005°23'0 0.0
2017-May-18 20:30N 36°10' W 005°23'0 0.0
2017-May-18 20:00N 36°10' W 005°23'0 0.0
2017-May-18 19:27N 36°10' W 005°23'0 0.0
2017-May-18 17:22N 36°10' W 005°23'3 2.4
2017-May-18 16:20N 36°08' W 005°24'0 0.0
2017-May-18 15:32N 36°08' W 005°24'0 0.1
2017-May-18 15:29N 36°08' W 005°24'0 0.0
2017-May-18 14:57N 36°08' W 005°24'0 0.1
2017-May-18 14:30N 36°08' W 005°24'0 0.1
2017-May-18 13:20N 36°08' W 005°24'0 0.1
2017-May-18 13:00N 36°08' W 005°24'0 0.0
2017-May-18 12:30N 36°08' W 005°24'0 0.1
2017-May-18 12:00N 36°08' W 005°24'0 0.1
2017-May-18 11:28N 36°08' W 005°25'0 0.0
2017-May-18 10:58N 36°08' W 005°24'0 0.0
2017-May-18 10:29N 36°08' W 005°25'1 0.2
2017-May-18 06:04N 36°08' W 005°26'0 0.3
2017-May-18 06:00N 36°08' W 005°26'3 4.2
2017-May-18 05:14N 36°05' W 005°25'0 0.6
2017-May-18 05:00N 36°05' W 005°25'0 0.0
2017-May-18 04:30N 36°05' W 005°25'0 0.1
2017-May-18 04:00N 36°05' W 005°25'0 0.1
2017-May-18 03:30N 36°05' W 005°25'0 0.1
2017-May-18 03:00N 36°05' W 005°25'0 0.1
2017-May-18 02:21N 36°05' W 005°25'0 0.1
2017-May-18 02:00N 36°05' W 005°25'0 0.1
2017-May-18 01:30N 36°05' W 005°25'0 0.1
2017-May-18 00:44N 36°05' W 005°25'1 5.3
2017-May-18 00:30N 36°06' W 005°25'3 6.4
2017-May-18 00:00N 36°10' W 005°24'2 0.1
2017-May-17 05:24N 36°08' W 005°26'0 0.0
2017-May-17 03:46N 36°08' W 005°26'0 0.0
2017-May-17 02:43N 36°08' W 005°26'0 0.0
2017-May-17 02:29N 36°08' W 005°26'  

Dump ship's entire track history